Time;durP1;ratioP1;P1;durP2;ratioP2;P2;SDS_P1;SDS_P2;PMS_P1;PMS_P2;Temp;Humidity;BMP_temperature;BMP_pressure;BME280_temperature;BME280_humidity;BME280_pressure;Samples;Min_cycle;Max_cycle;Signal;HPM_P1;HPM_P2
2022/02/12 00:01:18;;;;;;;5.75;1.40;;;;;;;1.52;81.01;101713.69;10464886;28;20448;-69
2022/02/12 00:06:19;;;;;;;4.75;1.40;;;;;;;1.26;80.87;101723.19;10464922;28;20045;-69
2022/02/12 00:11:21;;;;;;;7.05;1.33;;;;;;;1.45;78.90;101728.13;10462183;28;20107;-69
2022/02/12 00:16:22;;;;;;;5.60;1.48;;;;;;;1.31;79.58;101729.41;10445361;28;20053;-69
2022/02/12 00:21:24;;;;;;;4.82;1.45;;;;;;;1.16;79.74;101732.38;10428535;28;20049;-69
2022/02/12 00:26:26;;;;;;;4.93;1.90;;;;;;;1.10;79.59;101741.63;10463701;28;20074;-69
2022/02/12 00:31:28;;;;;;;2.60;1.10;;;;;;;0.89;77.94;101757.31;10463066;28;20368;-69
2022/02/12 00:36:29;;;;;;;3.75;1.20;;;;;;;0.94;79.47;101772.19;10462906;28;20486;-69
2022/02/12 00:41:32;;;;;;;4.50;1.55;;;;;;;0.90;79.70;101772.03;10445599;28;20125;-69
2022/02/12 00:46:33;;;;;;;5.90;1.38;;;;;;;1.15;76.65;101781.50;10461585;28;20175;-69
2022/02/12 00:51:35;;;;;;;2.80;1.13;;;;;;;1.03;76.50;101784.56;10444662;28;20051;-69
2022/02/12 00:56:37;;;;;;;5.55;1.50;;;;;;;0.72;80.03;101782.59;10446389;28;20414;-70
2022/02/12 01:01:39;;;;;;;6.95;1.65;;;;;;;0.82;79.96;101786.41;10462047;28;20048;-70
2022/02/12 01:06:40;;;;;;;5.78;1.45;;;;;;;0.94;78.37;101787.72;10443730;28;20057;-69
2022/02/12 01:11:42;;;;;;;6.43;1.35;;;;;;;0.77;80.43;101798.31;10443961;28;20037;-70
2022/02/12 01:16:43;;;;;;;4.22;1.95;;;;;;;0.68;81.82;101794.56;10461699;28;20172;-69
2022/02/12 01:21:45;;;;;;;5.13;1.48;;;;;;;0.96;81.74;101811.94;10463474;28;20129;-69
2022/02/12 01:26:48;;;;;;;3.90;1.50;;;;;;;0.80;83.01;101816.50;10461733;28;20095;-69
2022/02/12 01:31:52;;;;;;;5.97;1.50;;;;;;;0.77;84.07;101812.13;10460933;28;20075;-69
2022/02/12 01:36:53;;;;;;;10.38;1.90;;;;;;;0.84;83.48;101803.78;10460510;28;20041;-69
2022/02/12 01:41:55;;;;;;;5.78;1.83;;;;;;;0.88;83.23;101802.16;10459495;28;20068;-69
2022/02/12 01:46:58;;;;;;;12.25;2.67;;;;;;;0.65;84.24;101804.78;10442850;28;20057;-69
2022/02/12 01:52:00;;;;;;;3.08;1.50;;;;;;;0.73;84.57;101798.19;10460489;28;20052;-70
2022/02/12 01:57:03;;;;;;;8.18;2.20;;;;;;;0.58;84.85;101787.28;10459485;28;20411;-69
2022/02/12 02:02:05;;;;;;;9.15;1.90;;;;;;;0.52;84.57;101796.50;10460062;28;20045;-69
2022/02/12 02:07:08;;;;;;;5.70;1.92;;;;;;;0.53;84.21;101819.84;10461351;28;20433;-69
2022/02/12 02:12:10;;;;;;;4.88;1.77;;;;;;;0.60;83.11;101814.09;10459175;28;20543;-69
2022/02/12 02:17:12;;;;;;;7.40;2.00;;;;;;;0.61;83.07;101814.97;10441245;28;20049;-70
2022/02/12 02:22:16;;;;;;;5.43;1.60;;;;;;;0.46;83.22;101810.09;10441692;28;20072;-70
2022/02/12 02:27:19;;;;;;;6.63;1.90;;;;;;;0.57;82.07;101816.53;10458358;28;20131;-70
2022/02/12 02:32:21;;;;;;;5.78;2.05;;;;;;;0.38;82.55;101816.69;10458398;28;20045;-70
2022/02/12 02:37:23;;;;;;;4.07;1.42;;;;;;;0.12;84.05;101805.34;10457432;28;20048;-70
2022/02/12 02:42:25;;;;;;;3.80;1.75;;;;;;;0.01;84.46;101807.53;10457992;28;20052;-70
2022/02/12 02:47:36;;;;;;;8.65;1.60;;;;;;;0.37;83.17;101807.19;10459667;28;20053;-69
2022/02/12 02:57:58;;;;;;;12.15;2.33;;;;;;;0.17;84.20;101790.88;10456231;28;20110;-70
2022/02/12 03:02:59;;;;;;;5.03;2.00;;;;;;;0.16;84.17;101796.88;10457384;28;20434;-70
2022/02/12 03:08:01;;;;;;;4.90;2.00;;;;;;;0.01;85.03;101788.53;10456581;28;20045;-69
2022/02/12 03:13:02;;;;;;;4.55;2.10;;;;;;;-0.01;85.00;101785.88;10456995;28;20049;-69
2022/02/12 03:18:04;;;;;;;8.85;3.45;;;;;;;0.00;85.58;101792.84;10456768;28;20069;-69
2022/02/12 03:23:06;;;;;;;4.43;2.42;;;;;;;-0.02;85.22;101786.72;10457209;28;20075;-69
2022/02/12 03:28:08;;;;;;;5.60;3.00;;;;;;;-0.36;86.57;101789.63;10439883;28;20140;-70
2022/02/12 03:33:09;;;;;;;3.35;2.33;;;;;;;-0.60;88.26;101797.28;10458056;28;20056;-69
2022/02/12 03:38:16;;;;;;;6.43;3.08;;;;;;;-0.67;89.37;101803.88;10439078;28;20059;-69
2022/02/12 03:43:18;;;;;;;7.82;3.67;;;;;;;-0.69;89.09;101804.66;10457809;28;20107;-70
2022/02/12 03:48:22;;;;;;;6.25;3.10;;;;;;;-0.85;89.78;101808.25;10457666;28;20045;-69
2022/02/12 03:53:23;;;;;;;6.25;4.22;;;;;;;-0.90;90.53;101809.75;10458162;28;20049;-70
2022/02/12 03:58:25;;;;;;;6.88;3.80;;;;;;;-1.02;90.74;101811.00;10439671;28;20055;-70
2022/02/12 04:03:26;;;;;;;6.57;3.60;;;;;;;-1.13;91.97;101819.97;10439786;28;20049;-70
2022/02/12 04:08:28;;;;;;;5.90;4.00;;;;;;;-1.13;92.20;101808.78;10458162;28;20037;-70
2022/02/12 04:13:32;;;;;;;5.40;3.75;;;;;;;-1.03;92.04;101814.38;10455861;28;20037;-70
2022/02/12 04:18:33;;;;;;;9.55;3.85;;;;;;;-1.19;91.72;101814.56;10428927;22;21133;-77
2022/02/12 04:23:35;;;;;;;7.57;3.88;;;;;;;-1.31;92.08;101817.47;10366199;28;20177;-77
2022/02/12 04:28:37;;;;;;;5.95;4.10;;;;;;;-1.32;92.73;101818.28;10386944;28;20084;-77
2022/02/12 04:33:39;;;;;;;6.63;3.85;;;;;;;-1.36;92.93;101816.38;10428002;28;20061;-77
2022/02/12 04:38:41;;;;;;;7.90;3.83;;;;;;;-0.92;91.71;101824.31;10408425;28;20045;-76
2022/02/12 04:43:42;;;;;;;7.60;4.15;;;;;;;-1.17;91.75;101807.75;10426373;28;20052;-76
2022/02/12 04:48:48;;;;;;;7.50;3.75;;;;;;;-1.15;90.55;101807.81;10407599;28;20050;-76
2022/02/12 04:53:52;;;;;;;7.28;4.20;;;;;;;-1.03;90.86;101813.50;10429209;28;20033;-76
2022/02/12 04:58:53;;;;;;;7.03;4.13;;;;;;;-1.36;91.44;101800.91;10423857;28;20426;-76
2022/02/12 05:03:55;;;;;;;7.53;4.63;;;;;;;-1.46;92.06;101797.81;10426401;28;20045;-77
2022/02/12 05:08:56;;;;;;;7.88;5.10;;;;;;;-1.33;90.99;101794.97;10424819;28;20053;-76
2022/02/12 05:13:58;;;;;;;6.20;4.57;;;;;;;-1.40;91.97;101793.84;10427479;28;20045;-76
2022/02/12 05:19:01;;;;;;;6.60;4.78;;;;;;;-1.47;91.62;101790.91;10422275;28;20104;-76
2022/02/12 05:24:03;;;;;;;14.15;6.07;;;;;;;-1.27;92.28;101795.25;10423943;28;20052;-76
2022/02/12 05:29:05;;;;;;;8.68;5.53;;;;;;;-1.40;92.73;101782.63;10424474;28;20475;-76
2022/02/12 05:34:06;;;;;;;14.35;6.05;;;;;;;-1.15;93.19;101788.06;10425780;28;20100;-76
2022/02/12 05:39:09;;;;;;;7.70;5.85;;;;;;;-1.18;92.31;101780.19;10423204;28;20112;-77
2022/02/12 05:44:11;;;;;;;8.98;6.38;;;;;;;-1.13;92.96;101783.84;10423204;28;20049;-76
2022/02/12 05:49:13;;;;;;;12.15;6.65;;;;;;;-1.23;92.43;101783.38;10423977;28;20057;-76
2022/02/12 05:54:15;;;;;;;15.77;6.43;;;;;;;-1.38;92.95;101784.44;10425176;28;20495;-76
2022/02/12 05:59:19;;;;;;;9.48;5.50;;;;;;;-1.48;93.23;101786.56;10408114;28;20057;-76
2022/02/12 06:04:20;;;;;;;15.00;5.85;;;;;;;-1.61;93.33;101792.84;10423430;28;20034;-76
2022/02/12 06:09:22;;;;;;;14.18;6.28;;;;;;;-1.61;93.47;101791.16;10407095;28;20053;-75
2022/02/12 06:14:23;;;;;;;15.05;6.90;;;;;;;-1.72;93.69;101799.22;10406223;28;20029;-76
2022/02/12 06:19:27;;;;;;;16.58;7.47;;;;;;;-1.83;94.58;101809.03;10409682;28;20063;-76
2022/02/12 06:24:33;;;;;;;13.20;7.00;;;;;;;-1.87;94.56;101802.84;10423875;28;20443;-76
2022/02/12 06:29:34;;;;;;;11.13;7.00;;;;;;;-1.85;94.76;101803.81;10422574;28;20045;-77
2022/02/12 06:34:37;;;;;;;9.93;6.50;;;;;;;-1.93;94.73;101812.00;10404634;28;20517;-77
2022/02/12 06:39:38;;;;;;;9.35;6.68;;;;;;;-1.98;94.63;101821.22;10407378;28;20037;-76
2022/02/12 06:44:41;;;;;;;9.73;6.10;;;;;;;-1.67;93.17;101821.81;10424479;28;20045;-77
2022/02/12 06:49:43;;;;;;;9.70;6.95;;;;;;;-1.82;93.36;101815.94;10425021;28;20056;-77
2022/02/12 06:54:45;;;;;;;8.43;6.18;;;;;;;-1.60;93.49;101828.13;10423300;28;20040;-77
2022/02/12 06:59:46;;;;;;;9.25;6.43;;;;;;;-1.71;93.74;101822.50;10422633;28;20499;-75
2022/02/12 07:04:48;;;;;;;12.52;8.75;;;;;;;-1.59;93.73;101823.06;10406381;28;20121;-76
2022/02/12 07:09:50;;;;;;;13.75;10.02;;;;;;;-1.62;93.62;101832.34;10402689;28;20152;-77
2022/02/12 07:14:51;;;;;;;12.95;10.80;;;;;;;-1.58;92.81;101840.31;10419402;28;20072;-75
2022/02/12 07:19:53;;;;;;;16.20;11.68;;;;;;;-1.59;93.99;101835.97;10425199;28;20422;-76
2022/02/12 07:24:55;;;;;;;12.63;8.73;;;;;;;-1.37;93.96;101842.13;10407354;28;20041;-76
2022/02/12 07:29:57;;;;;;;16.65;10.80;;;;;;;-1.28;94.03;101839.94;10402979;28;20395;-76
2022/02/12 07:34:59;;;;;;;20.02;10.05;;;;;;;-1.17;94.31;101837.84;10403741;28;20456;-76
2022/02/12 07:40:01;;;;;;;10.30;8.20;;;;;;;-1.03;94.17;101842.78;10419535;28;20159;-75
2022/02/12 07:45:04;;;;;;;18.83;11.75;;;;;;;-0.64;92.97;101841.88;10411803;28;20044;-76
2022/02/12 07:50:08;;;;;;;20.42;11.85;;;;;;;-0.32;89.10;101838.91;10426886;28;20049;-76
2022/02/12 07:55:11;;;;;;;14.10;11.07;;;;;;;-0.34;88.50;101843.16;10404953;28;20124;-76
2022/02/12 08:00:15;;;;;;;13.65;11.05;;;;;;;-0.42;87.83;101836.78;10430137;28;20073;-76
2022/02/12 08:05:19;;;;;;;12.20;10.23;;;;;;;-0.35;86.73;101836.22;10412513;28;20506;-76
2022/02/12 08:15:41;;;;;;;13.75;10.38;;;;;;;-0.13;85.52;101850.03;10426998;28;20044;-76
2022/02/12 08:20:43;;;;;;;11.07;9.98;;;;;;;-0.14;85.23;101851.72;10428146;28;20069;-76
2022/02/12 08:25:46;;;;;;;19.58;9.57;;;;;;;0.34;82.18;101849.31;10427928;28;20049;-76
2022/02/12 08:30:48;;;;;;;13.15;9.38;;;;;;;0.44;82.02;101855.72;10428660;28;20461;-76
2022/02/12 08:35:50;;;;;;;14.63;10.60;;;;;;;0.40;81.36;101854.75;10407237;28;20051;-76
2022/02/12 08:40:51;;;;;;;9.82;8.80;;;;;;;0.72;80.01;101858.53;10425774;28;20458;-74
2022/02/12 08:45:53;;;;;;;16.75;10.18;;;;;;;0.80;79.51;101857.94;10427028;28;20050;-74
2022/02/12 08:50:55;;;;;;;12.38;10.52;;;;;;;0.80;78.97;101861.44;10428852;28;20077;-75
2022/02/12 08:55:56;;;;;;;10.68;9.02;;;;;;;0.94;78.16;101859.34;10407297;28;20048;-75
2022/02/12 09:00:58;;;;;;;13.15;9.07;;;;;;;1.11;76.38;101849.59;10423878;28;20116;-75
2022/02/12 09:06:00;;;;;;;12.32;9.85;;;;;;;1.09;76.23;101849.53;10423528;28;20053;-75
2022/02/12 09:11:02;;;;;;;10.20;7.57;;;;;;;1.37;73.81;101858.25;10424422;28;20049;-75
2022/02/12 09:16:04;;;;;;;10.70;9.05;;;;;;;1.34;74.19;101855.59;10423298;28;20418;-74
2022/02/12 09:21:05;;;;;;;9.63;7.72;;;;;;;1.11;74.59;101840.13;10422858;28;20041;-74
2022/02/12 09:26:07;;;;;;;8.23;7.40;;;;;;;1.12;74.37;101844.47;10423521;28;20049;-76
2022/02/12 09:31:09;;;;;;;9.43;6.60;;;;;;;1.34;73.12;101842.63;10424613;28;20038;-75
2022/02/12 09:36:10;;;;;;;7.20;5.57;;;;;;;1.68;69.42;101836.84;10428563;28;20045;-74
2022/02/12 09:41:16;;;;;;;8.60;6.38;;;;;;;1.82;68.94;101833.03;10410695;28;20045;-74
2022/02/12 09:46:40;;;;;;;6.85;5.97;;;;;;;1.82;69.30;101824.38;10426247;28;20041;-74
2022/02/12 09:51:44;;;;;;;8.40;6.20;;;;;;;1.78;67.99;101815.63;10426084;28;20140;-75
2022/02/12 09:56:46;;;;;;;7.63;4.28;;;;;;;2.02;63.94;101812.91;10427772;28;20054;-74
2022/02/12 10:01:48;;;;;;;5.45;4.93;;;;;;;2.31;62.58;101810.34;10424390;28;20124;-75
2022/02/12 10:06:51;;;;;;;10.13;4.78;;;;;;;2.29;63.74;101812.88;10426462;28;20042;-75
2022/02/12 10:11:54;;;;;;;5.20;3.55;;;;;;;2.19;63.31;101809.13;10426821;28;20116;-74
2022/02/12 10:17:00;;;;;;;4.72;3.05;;;;;;;2.46;63.56;101795.22;10394461;28;20052;-75
2022/02/12 10:22:09;;;;;;;6.97;3.73;;;;;;;2.82;62.30;101797.09;10503801;23;20048;-71
2022/02/12 10:27:11;;;;;;;5.18;3.10;;;;;;;2.71;61.78;101786.44;10524862;28;20439;-71
2022/02/12 10:32:18;;;;;;;4.25;2.97;;;;;;;2.44;62.52;101782.22;10523837;28;20067;-71
2022/02/12 10:37:22;;;;;;;4.97;3.10;;;;;;;2.63;62.61;101773.22;10542720;28;20394;-70
2022/02/12 10:42:27;;;;;;;4.60;2.83;;;;;;;2.82;60.93;101772.00;10541447;28;20358;-69
2022/02/12 10:47:36;;;;;;;4.40;3.05;;;;;;;3.68;59.37;101751.72;10525076;28;20048;-69
2022/02/12 10:52:40;;;;;;;5.90;3.88;;;;;;;4.21;59.17;101732.97;10541259;28;20040;-71
2022/02/12 10:57:41;;;;;;;7.90;3.75;;;;;;;4.46;59.21;101737.81;10525002;28;20500;-71
2022/02/12 11:02:43;;;;;;;5.03;4.00;;;;;;;5.23;57.59;101726.25;10541466;28;20048;-71
2022/02/12 11:07:45;;;;;;;5.18;3.97;;;;;;;5.56;57.10;101707.66;10522771;28;20048;-72
2022/02/12 11:12:47;;;;;;;5.60;3.60;;;;;;;5.65;55.28;101706.91;10523052;28;20048;-71
2022/02/12 11:17:49;;;;;;;5.95;3.10;;;;;;;6.40;53.60;101687.94;10541279;28;20048;-72
2022/02/12 11:23:27;;;;;;;4.47;2.63;;;;;;;6.97;52.65;101683.31;10541402;28;20036;-72
2022/02/12 11:28:30;;;;;;;4.97;3.22;;;;;;;6.69;51.89;101674.34;10539569;28;20071;-71
2022/02/12 11:33:32;;;;;;;4.05;2.55;;;;;;;6.38;52.10;101662.69;10547109;28;20086;-69
2022/02/12 11:38:36;;;;;;;4.47;2.58;;;;;;;6.82;53.02;101652.69;10548835;28;20093;-71
2022/02/12 11:43:38;;;;;;;4.18;2.60;;;;;;;7.24;49.63;101635.59;10549715;28;20044;-71
2022/02/12 11:49:22;;;;;;;3.95;2.55;;;;;;;8.12;48.66;101626.50;10548535;28;20048;-71
2022/02/12 11:54:57;;;;;;;2.70;1.95;;;;;;;8.74;45.98;101618.81;10550347;28;20046;-71
2022/02/12 12:00:01;;;;;;;3.30;2.15;;;;;;;7.92;47.06;101608.06;10548595;28;20051;-72
2022/02/12 12:05:20;;;;;;;3.65;2.05;;;;;;;7.48;48.61;101599.16;10547396;28;20044;-71
2022/02/12 12:10:22;;;;;;;3.63;2.47;;;;;;;7.42;49.88;101586.03;10546980;28;20040;-72
2022/02/12 12:15:26;;;;;;;2.50;1.98;;;;;;;7.20;49.34;101574.56;10528672;28;20040;-71
2022/02/12 12:20:43;;;;;;;3.55;2.33;;;;;;;6.83;50.69;101562.97;10549025;28;20047;-71
2022/02/12 12:26:00;;;;;;;2.95;2.28;;;;;;;6.67;52.53;101556.72;10548586;28;20074;-72
2022/02/12 12:31:05;;;;;;;3.25;2.70;;;;;;;6.27;51.57;101545.91;10548407;28;20502;-72
2022/02/12 12:36:16;;;;;;;4.75;3.10;;;;;;;5.83;53.60;101528.00;10536064;28;20084;-73
2022/02/12 12:41:32;;;;;;;4.90;3.08;;;;;;;5.57;53.12;101532.00;10518904;28;20072;-72
2022/02/12 12:46:35;;;;;;;3.67;2.60;;;;;;;5.05;55.37;101527.00;10544042;28;20447;-73
2022/02/12 12:51:48;;;;;;;5.80;2.58;;;;;;;5.24;55.16;101520.28;10549155;28;20062;-73
2022/02/12 12:56:50;;;;;;;4.78;2.80;;;;;;;4.97;55.83;101512.97;10549574;28;20036;-72
2022/02/12 13:01:57;;;;;;;3.20;2.33;;;;;;;4.58;56.14;101499.31;10547956;28;20058;-72
2022/02/12 13:06:59;;;;;;;;;;;;;;;4.90;56.88;101481.56;10529411;28;20063;-72
2022/02/12 13:12:33;;;;;;;5.32;2.70;;;;;;;5.05;57.05;101481.81;10494243;28;19970;-72
2022/02/12 13:17:39;;;;;;;4.22;2.90;;;;;;;5.14;56.15;101475.84;10507683;28;20495;-72
2022/02/12 13:22:52;;;;;;;2.70;1.57;;;;;;;5.04;53.87;101477.44;10487598;28;20036;-72
2022/02/12 13:27:55;;;;;;;2.85;1.83;;;;;;;5.10;52.45;101471.44;10489355;28;20127;-73
2022/02/12 13:32:58;;;;;;;3.42;2.40;;;;;;;5.12;52.57;101469.72;10545656;28;20040;-73
2022/02/12 13:38:00;;;;;;;4.15;2.60;;;;;;;4.89;54.67;101459.84;10545948;28;20048;-73
2022/02/12 13:43:07;;;;;;;2.75;2.13;;;;;;;4.94;53.30;101460.78;10528747;28;20036;-73
2022/02/12 13:48:11;;;;;;;4.25;2.85;;;;;;;4.83;54.76;101453.69;10546142;28;20394;-72
2022/02/12 13:53:20;;;;;;;2.45;2.25;;;;;;;4.89;54.10;101443.34;10543632;28;20485;-73
2022/02/12 13:58:25;;;;;;;5.13;2.40;;;;;;;4.79;54.77;101442.34;10526800;28;20083;-72
2022/02/12 14:03:40;;;;;;;4.03;2.60;;;;;;;4.86;54.09;101438.09;10544228;28;20047;-72
2022/02/12 14:08:42;;;;;;;2.67;2.35;;;;;;;5.02;52.04;101427.03;10545497;28;20052;-72
2022/02/12 14:13:44;;;;;;;2.83;2.40;;;;;;;5.03;53.78;101424.44;10543735;28;20074;-72
2022/02/12 14:18:46;;;;;;;3.95;2.72;;;;;;;4.92;53.64;101410.41;10545439;28;20040;-73
2022/02/12 14:23:48;;;;;;;3.42;3.10;;;;;;;4.80;54.48;101410.22;10544463;28;20093;-72
2022/02/12 14:28:49;;;;;;;3.35;2.92;;;;;;;4.79;54.08;101414.56;10543006;28;20470;-71
2022/02/12 14:33:52;;;;;;;3.67;3.20;;;;;;;4.57;55.44;101402.09;10544055;28;20039;-68
2022/02/12 14:38:54;;;;;;;4.93;3.80;;;;;;;4.55;56.50;101396.84;10543462;28;20040;-69
2022/02/12 14:43:55;;;;;;;5.07;3.90;;;;;;;4.45;56.91;101392.38;10544150;28;20044;-69
2022/02/12 14:48:57;;;;;;;5.05;4.15;;;;;;;4.34;57.34;101387.84;10543193;28;20079;-70
2022/02/12 14:53:59;;;;;;;5.35;4.32;;;;;;;4.21;59.04;101385.06;10543542;28;20040;-69
2022/02/12 14:59:00;;;;;;;4.45;3.88;;;;;;;4.44;58.38;101385.41;10543047;28;20044;-70
2022/02/12 15:04:02;;;;;;;5.07;4.05;;;;;;;4.36;57.98;101380.94;10543769;28;20435;-69
2022/02/12 15:09:04;;;;;;;4.82;4.38;;;;;;;4.24;58.42;101368.59;10524198;28;20486;-70
2022/02/12 15:14:07;;;;;;;6.45;4.72;;;;;;;3.93;59.15;101352.50;10541105;28;20051;-68
2022/02/12 15:19:09;;;;;;;6.45;5.00;;;;;;;3.88;59.65;101348.97;10524238;28;20563;-69
2022/02/12 15:24:11;;;;;;;5.82;4.45;;;;;;;3.82;60.48;101337.59;10543316;28;20044;-69
2022/02/12 15:29:14;;;;;;;6.90;3.97;;;;;;;3.59;61.09;101332.00;10524953;28;20044;-68
2022/02/12 15:34:17;;;;;;;6.82;4.47;;;;;;;3.73;60.78;101315.78;10543201;28;20615;-69
2022/02/12 15:39:19;;;;;;;7.43;4.82;;;;;;;3.67;61.39;101306.97;10524321;28;20067;-69
2022/02/12 15:44:23;;;;;;;4.72;4.03;;;;;;;3.62;60.77;101306.03;10525453;28;20036;-71
2022/02/12 15:49:26;;;;;;;6.13;4.60;;;;;;;3.50;62.17;101292.00;10542756;28;20048;-69
2022/02/12 15:54:30;;;;;;;6.70;4.95;;;;;;;3.76;60.74;101281.13;10542454;28;20086;-69
2022/02/12 15:59:33;;;;;;;5.90;5.18;;;;;;;3.65;61.16;101275.78;10542259;28;20097;-69
2022/02/12 16:04:34;;;;;;;8.55;6.40;;;;;;;3.28;62.49;101276.88;10542331;28;20028;-69
2022/02/12 16:09:36;;;;;;;6.63;5.68;;;;;;;2.98;63.79;101262.47;10540676;28;20044;-69
2022/02/12 16:14:39;;;;;;;9.23;6.07;;;;;;;3.15;63.91;101264.53;10540821;28;20123;-69
2022/02/12 16:19:42;;;;;;;9.02;5.57;;;;;;;3.09;63.83;101259.19;10552045;22;20708;-76
2022/02/12 16:24:45;;;;;;;7.28;6.53;;;;;;;2.73;65.09;101249.84;10513003;28;20090;-77
2022/02/12 16:29:48;;;;;;;8.13;7.43;;;;;;;2.53;65.94;101234.78;10513002;28;20391;-78
2022/02/12 16:34:51;;;;;;;8.88;7.88;;;;;;;2.43;66.86;101230.22;10492264;28;20404;-76
2022/02/12 16:39:54;;;;;;;12.02;7.05;;;;;;;2.42;68.06;101232.78;10508908;28;20036;-76
2022/02/12 16:45:12;;;;;;;9.48;7.95;;;;;;;2.51;67.26;101223.47;10511276;28;20037;-76
2022/02/12 16:50:14;;;;;;;8.00;7.20;;;;;;;2.25;67.90;101219.47;10506626;28;20044;-76
2022/02/12 16:55:15;;;;;;;8.35;7.55;;;;;;;2.15;68.38;101220.13;10472533;28;20045;-75
2022/02/12 17:00:17;;;;;;;9.75;8.85;;;;;;;1.97;69.16;101229.25;10489290;28;20052;-75
2022/02/12 17:05:22;;;;;;;9.27;8.48;;;;;;;1.93;69.95;101206.69;10490135;28;20047;-75
2022/02/12 17:10:24;;;;;;;10.48;9.57;;;;;;;1.81;70.60;101218.50;10488939;28;20046;-74
2022/02/12 17:15:26;;;;;;;11.18;9.50;;;;;;;1.73;71.24;101216.63;10487622;28;20490;-75
2022/02/12 17:20:27;;;;;;;9.82;8.93;;;;;;;1.71;71.87;101215.69;10487271;28;20140;-75
2022/02/12 17:25:29;;;;;;;12.35;11.15;;;;;;;1.84;72.62;101216.84;10505094;28;20045;-74
2022/02/12 17:30:31;;;;;;;11.35;10.38;;;;;;;1.46;73.44;101203.00;10506347;28;20048;-75
2022/02/12 17:35:34;;;;;;;14.82;12.35;;;;;;;1.23;73.79;101197.25;10487508;28;20055;-74
2022/02/12 17:40:35;;;;;;;19.40;12.68;;;;;;;1.14;74.28;101200.50;10486179;28;20044;-76
2022/02/12 17:45:37;;;;;;;12.70;11.40;;;;;;;1.14;74.89;101191.84;10503777;28;20432;-76
2022/02/12 17:50:39;;;;;;;14.68;12.05;;;;;;;1.04;75.26;101192.47;10486814;28;20059;-77
2022/02/12 17:55:40;;;;;;;12.65;10.85;;;;;;;0.84;75.99;101190.25;10507717;28;20055;-75
2022/02/12 18:00:42;;;;;;;12.77;11.48;;;;;;;0.85;76.14;101181.66;10527128;28;20040;-76
2022/02/12 18:05:44;;;;;;;12.95;11.80;;;;;;;1.13;76.44;101170.25;10526526;28;20044;-75
2022/02/12 18:10:46;;;;;;;16.33;14.75;;;;;;;0.86;76.56;101164.41;10546336;28;20036;-76
2022/02/12 18:15:49;;;;;;;19.05;15.32;;;;;;;0.86;77.29;101164.41;10545094;28;20560;-76
2022/02/12 18:20:53;;;;;;;16.83;14.07;;;;;;;0.70;77.27;101155.34;10546354;28;20463;-75
2022/02/12 18:25:55;;;;;;;14.18;12.70;;;;;;;0.38;77.60;101145.03;10527663;28;20111;-74
2022/02/12 18:30:58;;;;;;;16.17;14.55;;;;;;;0.33;78.32;101144.03;10527989;28;20048;-76
2022/02/12 18:36:01;;;;;;;16.63;14.20;;;;;;;0.38;78.36;101142.44;10544125;28;20054;-74
2022/02/12 18:41:23;;;;;;;15.07;13.68;;;;;;;0.21;78.46;101128.16;10544404;28;20143;-74
2022/02/12 18:46:25;;;;;;;19.15;14.88;;;;;;;0.16;78.39;101124.59;10544488;28;20058;-75
2022/02/12 18:51:29;;;;;;;18.90;15.65;;;;;;;0.10;78.60;101119.25;10545527;28;20052;-76
2022/02/12 18:56:32;;;;;;;17.98;16.25;;;;;;;0.23;78.86;101109.28;10526062;28;20562;-74
2022/02/12 19:01:38;;;;;;;18.05;15.85;;;;;;;0.17;79.11;101103.06;10526077;28;20465;-75
2022/02/12 19:06:39;;;;;;;18.90;16.88;;;;;;;0.06;79.21;101097.59;10525286;28;20040;-75
2022/02/12 19:11:41;;;;;;;19.55;17.42;;;;;;;-0.05;79.89;101094.69;10525114;28;20044;-75
2022/02/12 19:16:42;;;;;;;21.40;18.45;;;;;;;0.08;80.17;101093.34;10524195;28;20101;-75
2022/02/12 19:21:44;;;;;;;25.98;19.80;;;;;;;-0.23;80.83;101099.34;10542219;28;20040;-75
2022/02/12 19:26:46;;;;;;;23.75;20.08;;;;;;;-0.15;81.90;101097.00;10542190;28;20040;-74
2022/02/12 19:31:47;;;;;;;40.67;24.30;;;;;;;0.03;80.94;101094.94;10541313;28;20040;-75
2022/02/12 19:36:49;;;;;;;26.08;21.40;;;;;;;-0.05;79.10;101088.66;10523151;28;20040;-74
2022/02/12 19:41:51;;;;;;;29.85;23.55;;;;;;;-0.22;80.47;101090.78;10543455;28;20101;-74
2022/02/12 19:46:52;;;;;;;34.70;23.17;;;;;;;-0.28;80.82;101081.13;10541250;28;20397;-74
2022/02/12 19:51:54;;;;;;;29.80;23.23;;;;;;;-0.17;79.86;101085.75;10525557;28;20044;-73
2022/02/12 19:56:56;;;;;;;28.92;22.27;;;;;;;-0.40;81.13;101075.63;10549277;28;20040;-75
2022/02/12 20:01:57;;;;;;;26.27;22.92;;;;;;;-0.26;80.65;101074.31;10514660;28;20089;-74
2022/02/12 20:06:59;;;;;;;28.05;22.38;;;;;;;-0.33;80.47;101072.38;10549110;28;20107;-75
2022/02/12 20:12:01;;;;;;;41.28;24.75;;;;;;;-0.30;80.12;101066.44;10549960;28;20407;-76
2022/02/12 20:17:03;;;;;;;36.20;24.52;;;;;;;-0.49;80.19;101059.84;10549992;28;20032;-76
2022/02/12 20:22:05;;;;;;;40.65;26.88;;;;;;;-0.55;80.71;101057.97;10531185;28;20133;-75
2022/02/12 20:27:08;;;;;;;39.08;26.50;;;;;;;-0.95;82.41;101057.59;10550400;28;20055;-75
2022/02/12 20:32:09;;;;;;;43.28;27.80;;;;;;;-0.98;82.80;101052.31;10548560;28;20056;-75
2022/02/12 20:37:12;;;;;;;42.72;29.83;;;;;;;-0.57;82.53;101040.69;10549027;28;20093;-75
2022/02/12 20:42:15;;;;;;;37.17;27.25;;;;;;;-0.90;83.10;101032.78;10549314;28;20437;-74
2022/02/12 20:47:18;;;;;;;31.70;23.77;;;;;;;-0.69;81.57;101033.44;10529590;28;20501;-75
2022/02/12 20:52:21;;;;;;;33.42;25.05;;;;;;;-0.91;82.44;101026.75;10548756;28;20073;-74
2022/02/12 20:57:24;;;;;;;33.90;25.67;;;;;;;-0.98;83.33;101021.34;10530201;28;20496;-74
2022/02/12 21:02:27;;;;;;;31.77;24.33;;;;;;;-1.14;83.33;101013.16;10532675;28;20505;-73
2022/02/12 21:07:31;;;;;;;30.63;23.55;;;;;;;-0.83;82.94;101001.19;10550714;28;20651;-74
2022/02/12 21:12:33;;;;;;;30.08;22.20;;;;;;;-0.96;82.45;100993.91;10551211;28;20044;-73
2022/02/12 21:17:36;;;;;;;29.83;21.50;;;;;;;-0.85;82.27;100987.34;10551109;28;20048;-72
2022/02/12 21:22:38;;;;;;;26.35;22.45;;;;;;;-1.05;82.92;100985.06;10553378;28;20043;-71
2022/02/12 21:27:40;;;;;;;28.30;22.30;;;;;;;-1.17;82.44;100987.25;10550690;28;20493;-71
2022/02/12 21:32:42;;;;;;;29.95;22.60;;;;;;;-1.04;83.31;100978.19;10514658;28;20092;-72
2022/02/12 21:37:44;;;;;;;24.00;21.05;;;;;;;-0.84;81.77;100982.25;10529077;28;20048;-73
2022/02/12 21:42:46;;;;;;;23.13;20.98;;;;;;;-0.93;81.68;100971.66;10528063;28;20044;-75
2022/02/12 21:47:47;;;;;;;22.40;20.20;;;;;;;-0.94;81.95;100974.16;10546146;28;20040;-75
2022/02/12 21:52:49;;;;;;;22.95;19.55;;;;;;;-1.07;82.26;100970.34;10550965;28;20048;-72
2022/02/12 21:57:51;;;;;;;27.92;19.88;;;;;;;-0.95;81.23;100962.97;10532985;28;20055;-73
2022/02/12 22:02:52;;;;;;;21.15;19.38;;;;;;;-1.05;81.58;100959.25;10551659;28;20063;-74
2022/02/12 22:07:54;;;;;;;22.42;19.48;;;;;;;-1.29;82.80;100953.31;10531101;28;20429;-72
2022/02/12 22:12:56;;;;;;;25.55;21.38;;;;;;;-1.35;83.63;100945.41;10532088;28;20036;-72
2022/02/12 22:17:58;;;;;;;22.48;20.02;;;;;;;-1.35;84.10;100942.84;10531066;28;20551;-72
2022/02/12 22:22:59;;;;;;;22.80;20.17;;;;;;;-1.10;83.17;100944.47;10483936;22;20433;-74
2022/02/12 22:28:02;;;;;;;23.42;21.05;;;;;;;-1.49;83.92;100944.13;10448298;28;20102;-73
2022/02/12 22:33:04;;;;;;;31.38;24.15;;;;;;;-1.74;85.02;100947.59;10464500;28;20052;-74
2022/02/12 22:38:05;;;;;;;26.55;22.20;;;;;;;-1.70;85.61;100936.56;10463365;28;20106;-72
2022/02/12 22:43:07;;;;;;;69.85;40.17;;;;;;;-1.30;84.10;100934.41;10467298;28;20439;-73
2022/02/12 22:48:09;;;;;;;46.78;32.75;;;;;;;-1.23;83.56;100932.03;10463562;28;20048;-72
2022/02/12 22:53:11;;;;;;;36.40;26.33;;;;;;;-1.55;83.82;100921.56;10444239;28;20037;-72
2022/02/12 22:58:13;;;;;;;29.85;22.42;;;;;;;-1.56;84.87;100927.56;10463781;28;20474;-72
2022/02/12 23:03:15;;;;;;;23.33;21.00;;;;;;;-1.64;85.08;100924.75;10443967;28;20032;-73
2022/02/12 23:08:17;;;;;;;21.63;19.73;;;;;;;-1.52;84.33;100919.09;10462436;28;20098;-73
2022/02/12 23:13:35;;;;;;;19.50;17.65;;;;;;;-1.45;83.09;100910.72;10443523;28;20044;-73
2022/02/12 23:18:38;;;;;;;19.63;17.92;;;;;;;-1.86;83.88;100902.59;10442779;28;20498;-73
2022/02/12 23:23:40;;;;;;;21.45;19.27;;;;;;;-1.66;83.34;100895.47;10461324;28;20075;-72